createdAt,value
2023-05-07T00:00:50.998Z,13.30
2023-05-07T00:03:50.561Z,12.85
2023-05-07T00:07:05.039Z,13.68
2023-05-07T00:10:15.543Z,12.48
2023-05-07T00:13:28.896Z,13.23
2023-05-07T00:20:02.149Z,12.60
2023-05-07T00:26:39.408Z,12.70
2023-05-07T00:30:00.286Z,12.48
2023-05-07T00:36:50.042Z,12.27
2023-05-07T00:40:57.850Z,11.65
2023-05-07T00:43:42.083Z,11.52
2023-05-07T00:53:58.158Z,13.05
2023-05-07T00:57:11.645Z,13.32
2023-05-07T01:04:20.444Z,12.18
2023-05-07T01:11:05.401Z,12.77
2023-05-07T01:14:16.583Z,12.70
2023-05-07T01:17:36.228Z,13.00
2023-05-07T01:21:07.266Z,12.32
2023-05-07T01:28:53.941Z,13.30
2023-05-07T01:32:33.588Z,12.93
2023-05-07T01:35:56.761Z,14.90
2023-05-07T01:39:25.344Z,13.88
2023-05-07T01:42:31.464Z,14.73
2023-05-07T01:46:47.773Z,13.98
2023-05-07T01:50:08.101Z,14.23
2023-05-07T01:53:35.172Z,14.35
2023-05-07T01:56:32.908Z,13.43
2023-05-07T01:59:42.831Z,14.10
2023-05-07T02:03:11.165Z,16.20
2023-05-07T02:06:27.020Z,15.48
2023-05-07T02:09:32.341Z,15.07
2023-05-07T02:13:09.190Z,15.90
2023-05-07T02:22:46.154Z,14.20
2023-05-07T02:24:07.302Z,15.35
2023-05-07T02:27:29.445Z,15.60
2023-05-07T02:30:33.078Z,16.10
2023-05-07T02:34:00.512Z,16.95
2023-05-07T02:37:26.639Z,16.27
2023-05-07T02:41:02.896Z,17.00
2023-05-07T02:47:43.195Z,16.23
2023-05-07T02:51:05.836Z,16.25
2023-05-07T02:58:15.314Z,17.70
2023-05-07T03:05:01.840Z,17.92
2023-05-07T03:08:18.062Z,17.17
2023-05-07T03:11:26.796Z,18.00
2023-05-07T03:18:18.143Z,16.85
2023-05-07T03:21:25.177Z,15.45
2023-05-07T03:24:48.463Z,17.05
2023-05-07T03:31:29.873Z,16.02
2023-05-07T03:35:24.017Z,15.43
2023-05-07T03:38:34.725Z,16.98
2023-05-07T03:45:23.634Z,17.17
2023-05-07T03:48:36.425Z,16.30
2023-05-07T03:51:50.078Z,15.57
2023-05-07T03:58:16.861Z,16.45
2023-05-07T04:01:29.113Z,17.08
2023-05-07T04:04:41.076Z,16.15
2023-05-07T04:07:45.362Z,18.23
2023-05-07T04:17:45.317Z,18.23
2023-05-07T04:21:14.847Z,18.17
2023-05-07T04:24:22.361Z,17.77
2023-05-07T04:27:49.161Z,17.02
2023-05-07T04:31:01.829Z,16.90
2023-05-07T04:37:36.791Z,17.83
2023-05-07T04:40:44.961Z,18.02
2023-05-07T04:43:44.819Z,19.05
2023-05-07T04:50:47.872Z,18.42
2023-05-07T04:54:08.504Z,19.77
2023-05-07T04:57:26.681Z,18.65
2023-05-07T05:01:12.837Z,18.70
2023-05-07T05:04:39.618Z,18.45
2023-05-07T05:11:33.826Z,18.42
2023-05-07T05:21:50.967Z,20.27
2023-05-07T05:28:24.523Z,17.95
2023-05-07T05:31:41.586Z,17.67
2023-05-07T05:35:10.653Z,18.08
2023-05-07T05:38:34.054Z,16.73
2023-05-07T05:48:21.463Z,17.55
2023-05-07T05:51:28.546Z,17.70
2023-05-07T05:54:53.745Z,18.13
2023-05-07T05:58:32.737Z,19.20
2023-05-07T06:01:39.191Z,18.35
2023-05-07T06:05:02.683Z,19.08
2023-05-07T06:08:11.472Z,18.38
2023-05-07T06:11:41.926Z,17.90
2023-05-07T06:18:54.810Z,16.33
2023-05-07T06:22:25.646Z,16.73
2023-05-07T06:25:52.142Z,15.75
2023-05-07T06:32:21.317Z,14.90
2023-05-07T06:35:33.038Z,13.05
2023-05-07T06:42:50.874Z,10.98
2023-05-07T06:46:06.559Z,10.77
2023-05-07T06:53:35.758Z,8.38
2023-05-07T06:57:14.780Z,7.88
2023-05-07T07:07:00.554Z,6.72
2023-05-07T07:11:31.165Z,4.85
2023-05-07T07:14:55.141Z,6.63
2023-05-07T07:21:30.038Z,5.05
2023-05-07T07:27:42.462Z,4.68
2023-05-07T07:30:50.909Z,3.55
2023-05-07T07:34:06.438Z,2.72
2023-05-07T07:41:16.812Z,3.65
2023-05-07T07:51:38.114Z,3.67
2023-05-07T07:55:06.087Z,2.95
2023-05-07T08:01:41.168Z,2.75
2023-05-07T08:04:57.331Z,2.65
2023-05-07T08:08:11.201Z,3.65
2023-05-07T08:11:21.923Z,3.28
2023-05-07T08:14:40.749Z,2.80
2023-05-07T08:17:52.555Z,3.95
2023-05-07T08:21:23.663Z,5.30
2023-05-07T08:27:38.953Z,5.93
2023-05-07T08:35:05.433Z,4.05
2023-05-07T08:38:54.158Z,4.45
2023-05-07T08:42:18.072Z,4.25
2023-05-07T08:45:28.496Z,3.80
2023-05-07T08:48:34.932Z,5.95
2023-05-07T08:52:03.307Z,4.45
2023-05-07T08:55:14.147Z,9.07
2023-05-07T08:58:55.749Z,8.80
2023-05-07T09:02:11.337Z,14.93
2023-05-07T09:05:13.047Z,4.10
2023-05-07T09:15:28.541Z,5.25
2023-05-07T09:18:48.296Z,4.55
2023-05-07T09:22:32.388Z,3.58
2023-05-07T09:26:16.588Z,2.60
2023-05-07T09:29:14.135Z,2.20
2023-05-07T09:32:49.159Z,2.28
2023-05-07T09:36:11.710Z,1.40
2023-05-07T09:39:52.006Z,1.40
2023-05-07T09:43:30.103Z,1.40
2023-05-07T09:50:56.788Z,1.48
2023-05-07T09:57:44.294Z,2.10
2023-05-07T10:01:00.445Z,1.83
2023-05-07T10:07:24.995Z,1.60
2023-05-07T10:10:55.605Z,1.98
2023-05-07T10:14:38.423Z,1.55
2023-05-07T10:17:59.406Z,1.92
2023-05-07T10:20:59.188Z,1.40
2023-05-07T10:24:39.410Z,1.15
2023-05-07T10:27:44.998Z,1.33
2023-05-07T10:30:54.092Z,0.95
2023-05-07T10:34:39.739Z,0.70
2023-05-07T10:41:15.427Z,1.00
2023-05-07T10:48:30.319Z,1.42
2023-05-07T10:52:03.009Z,1.02
2023-05-07T10:55:32.965Z,1.42
2023-05-07T10:59:14.777Z,1.70
2023-05-07T11:05:49.201Z,1.55
2023-05-07T11:09:23.829Z,1.33
2023-05-07T11:12:44.421Z,1.40
2023-05-07T11:16:28.685Z,80.28
2023-05-07T11:21:06.803Z,202.88
2023-05-07T11:23:43.272Z,140.00
2023-05-07T11:26:46.947Z,170.70
2023-05-07T11:29:54.532Z,129.38
2023-05-07T11:40:17.450Z,83.07
2023-05-07T11:43:34.589Z,75.10
2023-05-07T11:50:36.515Z,60.88
2023-05-07T11:53:54.295Z,44.40
2023-05-07T11:57:11.374Z,102.63
2023-05-07T12:00:45.282Z,137.05
2023-05-07T12:03:47.680Z,97.90
2023-05-07T12:07:25.138Z,55.60
2023-05-07T12:10:53.227Z,5.00
2023-05-07T12:16:53.457Z,0.90
2023-05-07T12:17:40.510Z,0.85
2023-05-07T12:20:53.543Z,3.47
2023-05-07T12:27:27.506Z,4.63
2023-05-07T12:30:52.483Z,2.25
2023-05-07T12:34:00.653Z,2.65
2023-05-07T12:37:54.230Z,2.63
2023-05-07T12:41:12.835Z,2.95
2023-05-07T12:55:20.831Z,9.25
2023-05-07T12:58:25.453Z,37.90
2023-05-07T13:01:51.998Z,27.02
2023-05-07T13:05:27.391Z,27.63
2023-05-07T13:11:59.277Z,21.83
2023-05-07T13:25:44.638Z,17.00
2023-05-07T13:28:48.746Z,14.77
2023-05-07T13:35:24.632Z,14.68
2023-05-07T13:38:53.126Z,16.02
2023-05-07T13:45:42.257Z,15.00
2023-05-07T13:49:04.355Z,15.75
2023-05-07T13:55:46.058Z,13.80
2023-05-07T13:59:02.201Z,12.93
2023-05-07T14:02:05.877Z,11.50
2023-05-07T14:05:22.351Z,9.80
2023-05-07T14:11:05.500Z,5.90
2023-05-07T14:12:12.516Z,4.68
2023-05-07T14:16:33.209Z,5.35
2023-05-07T14:19:54.840Z,7.13
2023-05-07T14:23:23.573Z,6.85
2023-05-07T14:26:41.931Z,7.35
2023-05-07T14:33:51.788Z,7.30
2023-05-07T14:40:37.871Z,22.00
2023-05-07T14:44:01.563Z,22.05
2023-05-07T14:47:20.125Z,21.83
2023-05-07T14:51:01.585Z,22.77
2023-05-07T14:54:39.711Z,23.73
2023-05-07T14:58:05.478Z,22.80
2023-05-07T15:01:13.995Z,23.33
2023-05-07T15:04:33.494Z,25.77
2023-05-07T15:08:13.102Z,24.20
2023-05-07T15:11:47.978Z,24.35
2023-05-07T15:14:48.376Z,23.00
2023-05-07T15:18:00.314Z,22.90
2023-05-07T15:21:20.730Z,22.83
2023-05-07T15:24:39.664Z,24.75
2023-05-07T15:31:15.018Z,24.50
2023-05-07T15:34:24.294Z,22.30
2023-05-07T15:37:43.312Z,22.85
2023-05-07T15:41:14.794Z,21.48
2023-05-07T15:45:43.905Z,24.30
2023-05-07T15:48:12.257Z,23.02
2023-05-07T15:51:05.938Z,23.00
2023-05-07T15:54:10.146Z,22.70
2023-05-07T15:57:36.073Z,20.55
2023-05-07T16:00:52.590Z,20.70
2023-05-07T16:07:41.822Z,21.25
2023-05-07T16:10:52.678Z,23.05
2023-05-07T16:15:19.802Z,17.45
2023-05-07T16:18:28.766Z,12.60
2023-05-07T16:21:39.231Z,10.65
2023-05-07T16:25:01.512Z,9.82
2023-05-07T16:28:25.470Z,12.13
2023-05-07T16:31:45.424Z,14.60
2023-05-07T16:34:46.465Z,19.52
2023-05-07T16:37:42.093Z,20.88
2023-05-07T16:40:57.022Z,20.85
2023-05-07T16:44:03.604Z,20.20
2023-05-07T16:47:13.597Z,19.08
2023-05-07T16:50:29.894Z,18.88
2023-05-07T16:53:52.863Z,19.30
2023-05-07T17:00:21.118Z,18.27
2023-05-07T17:03:42.831Z,17.55
2023-05-07T17:06:47.766Z,18.17
2023-05-07T17:09:48.941Z,15.40
2023-05-07T17:16:42.742Z,15.40
2023-05-07T17:19:45.971Z,14.27
2023-05-07T17:23:10.376Z,10.65
2023-05-07T17:29:41.059Z,10.18
2023-05-07T17:32:54.680Z,10.55
2023-05-07T17:39:18.906Z,7.50
2023-05-07T17:42:29.311Z,7.40
2023-05-07T17:45:36.181Z,5.78
2023-05-07T17:52:07.781Z,5.65
2023-05-07T17:55:25.802Z,6.38
2023-05-07T17:58:58.167Z,6.60
2023-05-07T18:05:39.871Z,5.97
2023-05-07T18:08:59.975Z,5.25
2023-05-07T18:12:08.042Z,5.32
2023-05-07T18:15:16.010Z,4.78
2023-05-07T18:26:13.472Z,4.82
2023-05-07T18:29:55.116Z,4.68
2023-05-07T18:33:11.119Z,4.30
2023-05-07T18:36:26.927Z,4.43
2023-05-07T18:39:47.677Z,5.30
2023-05-07T18:43:24.778Z,7.05
2023-05-07T18:46:29.540Z,7.90
2023-05-07T18:52:54.450Z,9.57
2023-05-07T18:59:27.379Z,9.80
2023-05-07T19:02:29.368Z,9.68
2023-05-07T19:05:44.777Z,10.80
2023-05-07T19:09:09.153Z,11.18
2023-05-07T19:13:05.532Z,11.00
2023-05-07T19:19:21.962Z,11.02
2023-05-07T19:22:31.662Z,11.82
2023-05-07T19:29:07.214Z,12.80
2023-05-07T19:32:22.235Z,14.00
2023-05-07T19:35:34.062Z,14.88
2023-05-07T19:38:45.794Z,15.02
2023-05-07T19:42:02.884Z,16.60
2023-05-07T19:45:17.979Z,16.80
2023-05-07T19:48:39.147Z,16.95
2023-05-07T19:55:17.575Z,21.00
2023-05-07T19:58:30.938Z,20.98
2023-05-07T20:04:48.052Z,19.58
2023-05-07T20:07:40.533Z,21.17
2023-05-07T20:10:58.566Z,23.00
2023-05-07T20:14:25.611Z,23.67
2023-05-07T20:17:52.661Z,23.77
2023-05-07T20:21:34.818Z,24.63
2023-05-07T20:24:49.828Z,24.42
2023-05-07T20:28:12.086Z,25.70
2023-05-07T20:31:39.757Z,28.35
2023-05-07T20:34:42.839Z,32.25
2023-05-07T20:38:46.653Z,28.38
2023-05-07T20:42:31.599Z,33.72
2023-05-07T20:46:03.293Z,33.55
2023-05-07T20:49:12.985Z,34.88
2023-05-07T20:52:41.442Z,34.15
2023-05-07T20:55:53.196Z,33.60
2023-05-07T21:03:09.940Z,33.45
2023-05-07T21:06:43.153Z,33.28
2023-05-07T21:09:58.258Z,31.77
2023-05-07T21:10:07.665Z,32.72
2023-05-07T21:13:39.664Z,39.25
2023-05-07T21:16:53.860Z,38.47
2023-05-07T21:19:46.353Z,35.50
2023-05-07T21:26:26.440Z,36.38
2023-05-07T21:29:46.858Z,39.10
2023-05-07T21:36:19.383Z,37.67
2023-05-07T21:39:36.514Z,38.83
2023-05-07T21:43:07.418Z,43.45
2023-05-07T21:46:56.383Z,44.40
2023-05-07T21:50:07.236Z,46.00
2023-05-07T21:53:24.700Z,47.45
2023-05-07T21:56:33.132Z,47.38
2023-05-07T21:59:31.446Z,47.10
2023-05-07T22:03:17.173Z,49.88
2023-05-07T22:06:30.649Z,54.58
2023-05-07T22:09:33.481Z,51.55
2023-05-07T22:12:53.614Z,51.47
2023-05-07T22:16:30.723Z,56.20
2023-05-07T22:19:48.826Z,57.75
2023-05-07T22:23:14.074Z,57.17
2023-05-07T22:26:40.117Z,61.38
2023-05-07T22:29:48.333Z,60.97
2023-05-07T22:33:00.845Z,57.20
2023-05-07T22:39:56.941Z,57.70
2023-05-07T22:43:16.874Z,59.38
2023-05-07T22:46:21.533Z,57.78
2023-05-07T22:49:32.916Z,59.83
2023-05-07T22:53:54.743Z,59.90
2023-05-07T22:57:13.419Z,60.03
2023-05-07T23:00:30.850Z,60.10
2023-05-07T23:03:50.028Z,64.38
2023-05-07T23:07:07.746Z,64.28
2023-05-07T23:10:45.419Z,62.50
2023-05-07T23:14:23.842Z,61.42
2023-05-07T23:21:04.939Z,76.18
2023-05-07T23:24:17.547Z,64.20
2023-05-07T23:27:09.447Z,78.88
2023-05-07T23:30:57.489Z,72.50
2023-05-07T23:34:35.410Z,80.72
2023-05-07T23:40:53.166Z,80.82
2023-05-07T23:43:47.497Z,80.85
2023-05-07T23:47:23.125Z,84.22
2023-05-07T23:50:37.556Z,86.82
2023-05-07T23:53:48.295Z,86.72
2023-05-07T23:57:04.150Z,90.15
